TimeMDT,TemperatureF,Dew PointF,Humidity,Sea Level PressureIn,VisibilityMPH,Wind Direction,Wind SpeedMPH,Gust SpeedMPH,PrecipitationIn,Events,Conditions,WindDirDegrees,DateUTC
12:15 AM,48.2,39.2,71,30.06,10.0,Calm,Calm,-,N/A,,Clear,0,2012-10-16 06:15:00
12:35 AM,48.2,41.0,76,30.06,10.0,South,3.5,-,N/A,,Clear,180,2012-10-16 06:35:00
12:55 AM,46.4,41.0,81,30.06,10.0,Calm,Calm,-,N/A,,Clear,0,2012-10-16 06:55:00
1:15 AM,48.2,41.0,76,30.07,10.0,Calm,Calm,-,N/A,,Clear,0,2012-10-16 07:15:00
1:35 AM,46.4,41.0,81,30.06,10.0,Calm,Calm,-,N/A,,Clear,0,2012-10-16 07:35:00
1:55 AM,46.4,39.2,76,30.06,10.0,SSE,4.6,-,N/A,,Clear,150,2012-10-16 07:55:00
2:15 AM,46.4,39.2,76,30.06,10.0,ESE,4.6,-,N/A,,Clear,120,2012-10-16 08:15:00
2:35 AM,44.6,39.2,81,30.06,10.0,East,6.9,-,N/A,,Clear,100,2012-10-16 08:35:00
2:55 AM,46.4,41.0,81,30.07,10.0,East,3.5,-,N/A,,Clear,100,2012-10-16 08:55:00
3:35 AM,46.4,39.2,76,30.05,10.0,East,4.6,-,N/A,,Clear,100,2012-10-16 09:35:00
3:55 AM,46.4,39.2,76,30.05,10.0,ENE,3.5,-,N/A,,Clear,70,2012-10-16 09:55:00
4:15 AM,44.6,37.4,76,30.05,10.0,ENE,3.5,-,N/A,,Clear,70,2012-10-16 10:15:00
4:35 AM,44.6,37.4,76,30.04,10.0,East,4.6,-,N/A,,Clear,80,2012-10-16 10:35:00
4:55 AM,44.6,39.2,81,30.04,10.0,Calm,Calm,-,N/A,,Clear,0,2012-10-16 10:55:00
5:15 AM,46.4,37.4,71,30.03,10.0,East,3.5,-,N/A,,Clear,100,2012-10-16 11:15:00
5:35 AM,42.8,37.4,81,30.03,10.0,East,5.8,-,N/A,,Clear,100,2012-10-16 11:35:00
6:15 AM,44.6,39.2,81,30.02,10.0,East,5.8,-,N/A,,Clear,100,2012-10-16 12:15:00
6:35 AM,44.6,37.4,76,30.02,10.0,SE,4.6,-,N/A,,Clear,130,2012-10-16 12:35:00
6:49 AM,44.6,37.4,76,30.02,15.0,Calm,Calm,-,N/A,,Partly Cloudy,0,2012-10-16 12:49:00
7:55 AM,42.8,37.4,81,30.03,15.0,Calm,Calm,-,N/A,,Scattered Clouds,0,2012-10-16 13:55:00
8:56 AM,51.8,42.8,71,30.03,15.0,East,5.8,-,N/A,,Mostly Cloudy,80,2012-10-16 14:56:00
9:52 AM,55.4,41.0,58,30.01,15.0,Calm,Calm,-,N/A,,Mostly Cloudy,0,2012-10-16 15:52:00
10:50 AM,55.4,42.8,63,30.00,15.0,Variable,3.5,-,N/A,,Mostly Cloudy,0,2012-10-16 16:50:00
11:47 AM,60.8,42.8,52,29.96,15.0,Calm,Calm,-,N/A,,Mostly Cloudy,0,2012-10-16 17:47:00
12:47 PM,66.2,39.2,37,29.92,15.0,East,5.8,-,N/A,,Scattered Clouds,90,2012-10-16 18:47:00
1:47 PM,71.6,39.2,31,29.86,15.0,SSW,6.9,-,N/A,,Scattered Clouds,200,2012-10-16 19:47:00
2:55 PM,71.6,44.6,38,29.81,15.0,SSW,10.4,17.3,N/A,,Mostly Cloudy,210,2012-10-16 20:55:00
3:55 PM,69.8,46.4,43,29.80,15.0,SSW,9.2,-,N/A,,Mostly Cloudy,210,2012-10-16 21:55:00
4:57 PM,73.4,44.6,36,29.78,7.0,WNW,43.7,55.2,N/A,Rain,Light Rain,300,2012-10-16 22:57:00
5:48 PM,60.8,46.4,59,29.84,12.0,WNW,23.0,40.3,N/A,,Mostly Cloudy,300,2012-10-16 23:48:00
6:54 PM,57.2,44.6,63,29.90,15.0,WNW,19.6,27.6,N/A,,Mostly Cloudy,300,2012-10-17 00:54:00
7:54 PM,57.2,42.8,59,29.93,15.0,WNW,9.2,25.3,N/A,,Mostly Cloudy,300,2012-10-17 01:54:00
8:54 PM,57.2,44.6,63,29.97,15.0,West,9.2,-,N/A,,Mostly Cloudy,280,2012-10-17 02:54:00
8:55 PM,57.2,44.6,63,29.97,10.0,WNW,10.4,-,N/A,,Mostly Cloudy,300,2012-10-17 02:55:00
9:15 PM,57.2,42.8,59,29.98,10.0,NNW,17.3,24.2,N/A,,Clear,330,2012-10-17 03:15:00
9:35 PM,57.2,41.0,55,29.99,10.0,NW,16.1,24.2,N/A,,Scattered Clouds,320,2012-10-17 03:35:00
9:55 PM,57.2,41.0,55,30.00,10.0,NNW,17.3,25.3,N/A,,Mostly Cloudy,330,2012-10-17 03:55:00
10:15 PM,55.4,30.2,38,30.02,10.0,NW,19.6,24.2,N/A,,Overcast,320,2012-10-17 04:15:00
10:35 PM,55.4,30.2,38,30.03,10.0,NNW,11.5,-,N/A,,Overcast,330,2012-10-17 04:35:00
10:55 PM,55.4,28.4,36,30.04,10.0,NNW,5.8,-,N/A,,Mostly Cloudy,330,2012-10-17 04:55:00
11:55 PM,51.8,28.4,41,30.06,10.0,North,5.8,-,N/A,,Clear,350,2012-10-17 05:55:00